Time;durP1;ratioP1;P1;durP2;ratioP2;P2;SDS_P1;SDS_P2;PMS_P1;PMS_P2;Temp;Humidity;BMP_temperature;BMP_pressure;BME280_temperature;BME280_humidity;BME280_pressure;Samples;Min_cycle;Max_cycle;Signal;HPM_P1;HPM_P2
2023/05/15 00:00:00;;;;;;;13.83;5.77;;;;;;;;;;4995671;28;20128;-51
2023/05/15 00:02:28;;;;;;;13.13;5.38;;;;;;;;;;4993876;28;20129;-49
2023/05/15 00:04:57;;;;;;;11.77;5.22;;;;;;;;;;5006188;28;20573;-49
2023/05/15 00:07:24;;;;;;;14.82;5.57;;;;;;;;;;4999117;28;20124;-51
2023/05/15 00:09:53;;;;;;;15.85;5.65;;;;;;;;;;4997522;28;20061;-47
2023/05/15 00:12:21;;;;;;;17.23;6.10;;;;;;;;;;4969356;28;20053;-48
2023/05/15 00:14:48;;;;;;;13.95;5.93;;;;;;;;;;5004691;28;20116;-50
2023/05/15 00:17:16;;;;;;;12.02;5.63;;;;;;;;;;4994809;28;20127;-49
2023/05/15 00:19:43;;;;;;;10.02;3.80;;;;;;;;;;5001769;28;20109;-49
2023/05/15 00:22:12;;;;;;;6.40;2.42;;;;;;;;;;4992239;28;20030;-47
2023/05/15 00:24:39;;;;;;;5.10;1.60;;;;;;;;;;4999793;28;20067;-50
2023/05/15 00:27:10;;;;;;;4.95;1.52;;;;;;;;;;4994468;28;20495;-47
2023/05/15 00:29:37;;;;;;;5.00;1.45;;;;;;;;;;4982720;28;20073;-48
2023/05/15 00:32:05;;;;;;;3.30;0.75;;;;;;;;;;4987618;28;20065;-51
2023/05/15 00:34:33;;;;;;;3.97;1.15;;;;;;;;;;4990162;28;20120;-48
2023/05/15 00:37:01;;;;;;;4.00;0.90;;;;;;;;;;5000989;28;20045;-48
2023/05/15 00:39:28;;;;;;;4.70;0.90;;;;;;;;;;4986227;28;20069;-49
2023/05/15 00:41:57;;;;;;;4.63;1.00;;;;;;;;;;4999009;28;20069;-48
2023/05/15 00:44:29;;;;;;;4.35;1.00;;;;;;;;;;4987584;28;20038;-47
2023/05/15 00:46:58;;;;;;;4.68;1.25;;;;;;;;;;4989032;28;20092;-47
2023/05/15 00:49:26;;;;;;;3.57;0.87;;;;;;;;;;4979718;28;20041;-48
2023/05/15 00:51:55;;;;;;;4.80;1.10;;;;;;;;;;5002935;28;20454;-49
2023/05/15 00:54:22;;;;;;;4.63;1.13;;;;;;;;;;4979324;28;20065;-48
2023/05/15 00:56:50;;;;;;;4.40;1.05;;;;;;;;;;4996481;28;20129;-49
2023/05/15 00:59:18;;;;;;;4.50;1.05;;;;;;;;;;4980896;28;20038;-48
2023/05/15 01:01:48;;;;;;;3.80;1.03;;;;;;;;;;4997993;28;20049;-48
2023/05/15 01:04:16;;;;;;;4.65;1.17;;;;;;;;;;4968267;28;20128;-48
2023/05/15 01:06:44;;;;;;;4.32;1.20;;;;;;;;;;5001138;28;20590;-47
2023/05/15 01:09:12;;;;;;;4.38;1.17;;;;;;;;;;4947368;28;20034;-48
2023/05/15 01:11:41;;;;;;;4.85;1.63;;;;;;;;;;4995087;28;20559;-49
2023/05/15 01:14:09;;;;;;;4.30;1.20;;;;;;;;;;5000442;28;20045;-50
2023/05/15 01:16:37;;;;;;;5.28;1.23;;;;;;;;;;4993132;28;20096;-53
2023/05/15 01:19:06;;;;;;;7.00;1.58;;;;;;;;;;4997223;28;20052;-51
2023/05/15 01:21:55;;;;;;;5.10;1.70;;;;;;;;;;4972128;28;20045;-48
2023/05/15 01:24:34;;;;;;;6.03;1.58;;;;;;;;;;4996354;28;20124;-52
2023/05/15 01:27:22;;;;;;;4.77;1.73;;;;;;;;;;4999678;28;20065;-51
2023/05/15 01:29:55;;;;;;;6.22;1.60;;;;;;;;;;4984944;28;20169;-48
2023/05/15 01:32:25;;;;;;;8.88;1.23;;;;;;;;;;4992708;28;20583;-50
2023/05/15 01:34:57;;;;;;;6.75;1.58;;;;;;;;;;4954908;28;20045;-49
2023/05/15 01:37:26;;;;;;;7.10;1.75;;;;;;;;;;4995308;28;20748;-49
2023/05/15 01:39:54;;;;;;;5.80;1.37;;;;;;;;;;5002921;28;20519;-49
2023/05/15 01:42:24;;;;;;;4.53;1.40;;;;;;;;;;4999751;28;20057;-46
2023/05/15 01:44:55;;;;;;;4.85;1.27;;;;;;;;;;4980667;28;20201;-49
2023/05/15 01:47:31;;;;;;;6.55;1.60;;;;;;;;;;5003651;28;20103;-48
2023/05/15 01:50:01;;;;;;;5.97;1.98;;;;;;;;;;4977775;28;20562;-50
2023/05/15 01:52:30;;;;;;;6.03;1.70;;;;;;;;;;4996107;28;20060;-48
2023/05/15 01:54:58;;;;;;;7.70;1.63;;;;;;;;;;4996006;28;20076;-48
2023/05/15 01:57:26;;;;;;;8.07;1.90;;;;;;;;;;4991845;28;20065;-49
2023/05/15 01:59:57;;;;;;;9.05;1.67;;;;;;;;;;4980453;28;21957;-50
2023/05/15 02:02:25;;;;;;;9.77;2.58;;;;;;;;;;4985197;28;20140;-49
2023/05/15 02:04:54;;;;;;;8.73;1.87;;;;;;;;;;4997152;28;20491;-48
2023/05/15 02:07:22;;;;;;;10.65;2.05;;;;;;;;;;4996136;28;20065;-50
2023/05/15 02:09:51;;;;;;;6.15;1.70;;;;;;;;;;4995688;28;20554;-47
2023/05/15 02:12:19;;;;;;;6.97;2.05;;;;;;;;;;4996494;28;20060;-50
2023/05/15 02:14:48;;;;;;;7.07;1.70;;;;;;;;;;5001717;28;20081;-52
2023/05/15 02:17:17;;;;;;;8.97;2.00;;;;;;;;;;4994187;28;20041;-51
2023/05/15 02:19:45;;;;;;;6.25;1.33;;;;;;;;;;5006676;28;20148;-49
2023/05/15 02:22:14;;;;;;;6.97;1.00;;;;;;;;;;4994819;28;20543;-51
2023/05/15 02:24:42;;;;;;;4.50;1.13;;;;;;;;;;4991357;28;20125;-50
2023/05/15 02:27:12;;;;;;;9.73;1.30;;;;;;;;;;4983459;28;20140;-48
2023/05/15 02:29:46;;;;;;;8.80;0.70;;;;;;;;;;5002783;28;20484;-52
2023/05/15 02:32:15;;;;;;;5.65;0.60;;;;;;;;;;4984457;28;20048;-49
2023/05/15 02:34:47;;;;;;;8.13;0.70;;;;;;;;;;4993934;28;20045;-48
2023/05/15 02:37:17;;;;;;;4.38;0.40;;;;;;;;;;4990623;28;20120;-50
2023/05/15 02:39:45;;;;;;;5.78;0.70;;;;;;;;;;5014633;28;20096;-48
2023/05/15 02:42:14;;;;;;;4.33;0.40;;;;;;;;;;4998283;28;20065;-49
2023/05/15 02:44:42;;;;;;;5.72;0.43;;;;;;;;;;4983683;28;20403;-50
2023/05/15 02:47:10;;;;;;;5.22;0.60;;;;;;;;;;4998160;28;20491;-51
2023/05/15 02:49:38;;;;;;;11.52;0.63;;;;;;;;;;4991730;28;20067;-52
2023/05/15 02:52:07;;;;;;;4.55;0.50;;;;;;;;;;4998368;28;20092;-49
2023/05/15 02:54:34;;;;;;;7.53;0.70;;;;;;;;;;4977144;28;20046;-51
2023/05/15 02:57:02;;;;;;;4.07;0.47;;;;;;;;;;4963470;28;20080;-49
2023/05/15 02:59:30;;;;;;;8.45;0.65;;;;;;;;;;4998618;28;20070;-51
2023/05/15 03:01:57;;;;;;;5.55;0.73;;;;;;;;;;4984720;28;20264;-47
2023/05/15 03:04:25;;;;;;;5.10;0.50;;;;;;;;;;4977721;28;20061;-50
2023/05/15 03:06:53;;;;;;;7.07;0.60;;;;;;;;;;4990820;28;20310;-48
2023/05/15 03:09:21;;;;;;;6.32;0.40;;;;;;;;;;5002229;28;20505;-50
2023/05/15 03:11:49;;;;;;;4.90;0.60;;;;;;;;;;4985191;28;20716;-52
2023/05/15 03:14:17;;;;;;;5.43;0.50;;;;;;;;;;5004885;28;20084;-51
2023/05/15 03:16:44;;;;;;;2.78;0.68;;;;;;;;;;5007551;28;20487;-52
2023/05/15 03:19:12;;;;;;;3.33;0.50;;;;;;;;;;4987014;28;20633;-50
2023/05/15 03:21:40;;;;;;;6.20;0.90;;;;;;;;;;5008454;28;20037;-54
2023/05/15 03:24:07;;;;;;;6.88;0.55;;;;;;;;;;4989750;28;20129;-49
2023/05/15 03:26:36;;;;;;;2.25;0.38;;;;;;;;;;4995337;28;20049;-51
2023/05/15 03:29:04;;;;;;;6.55;0.90;;;;;;;;;;4982698;28;20119;-52
2023/05/15 03:31:31;;;;;;;4.37;0.43;;;;;;;;;;4994069;28;20132;-49
2023/05/15 03:33:59;;;;;;;6.57;0.68;;;;;;;;;;4976205;28;20037;-52
2023/05/15 03:36:26;;;;;;;7.18;0.70;;;;;;;;;;4996363;28;20096;-51
2023/05/15 03:38:54;;;;;;;6.22;0.52;;;;;;;;;;4976391;28;20138;-52
2023/05/15 03:41:24;;;;;;;7.72;0.45;;;;;;;;;;5004397;28;20077;-51
2023/05/15 03:43:53;;;;;;;11.73;0.83;;;;;;;;;;4985157;28;20084;-50
2023/05/15 03:46:21;;;;;;;5.75;0.60;;;;;;;;;;4993305;28;20104;-48
2023/05/15 03:48:49;;;;;;;3.20;0.55;;;;;;;;;;4997831;28;20042;-51
2023/05/15 03:51:17;;;;;;;5.57;0.43;;;;;;;;;;4989802;28;20107;-50
2023/05/15 03:53:44;;;;;;;6.60;0.85;;;;;;;;;;4996561;28;20041;-50
2023/05/15 03:56:12;;;;;;;6.37;0.60;;;;;;;;;;5004053;28;20048;-49
2023/05/15 03:58:43;;;;;;;6.78;0.63;;;;;;;;;;4992434;28;20049;-51
2023/05/15 04:01:13;;;;;;;6.70;0.60;;;;;;;;;;4999026;28;20494;-51
2023/05/15 04:03:41;;;;;;;6.07;0.60;;;;;;;;;;4999712;28;20102;-49
2023/05/15 04:06:11;;;;;;;6.10;0.40;;;;;;;;;;4990764;28;20099;-50
2023/05/15 04:08:39;;;;;;;5.70;0.40;;;;;;;;;;4976101;28;20042;-52
2023/05/15 04:11:08;;;;;;;6.30;0.57;;;;;;;;;;4994083;28;20050;-50
2023/05/15 04:13:35;;;;;;;4.43;0.60;;;;;;;;;;4992453;28;20136;-49
2023/05/15 04:16:03;;;;;;;4.22;0.43;;;;;;;;;;4988544;28;20064;-49
2023/05/15 04:18:32;;;;;;;4.63;0.35;;;;;;;;;;4972484;28;20064;-48
2023/05/15 04:21:00;;;;;;;8.57;0.63;;;;;;;;;;4979987;28;20057;-49
2023/05/15 04:23:28;;;;;;;4.35;0.50;;;;;;;;;;4999804;28;20041;-52
2023/05/15 04:25:55;;;;;;;9.15;0.63;;;;;;;;;;4988761;28;20076;-50
2023/05/15 04:28:23;;;;;;;7.43;0.50;;;;;;;;;;4991823;28;20044;-49
2023/05/15 04:30:50;;;;;;;7.55;0.60;;;;;;;;;;4978282;28;20581;-51
2023/05/15 04:33:18;;;;;;;8.13;0.60;;;;;;;;;;4991150;28;20476;-51
2023/05/15 04:35:47;;;;;;;5.15;0.60;;;;;;;;;;4965886;28;20048;-50
2023/05/15 04:38:15;;;;;;;4.78;0.73;;;;;;;;;;5003138;28;20100;-49
2023/05/15 04:40:43;;;;;;;3.95;0.30;;;;;;;;;;4981483;28;20070;-51
2023/05/15 04:43:11;;;;;;;3.35;0.60;;;;;;;;;;4985911;28;20204;-51
2023/05/15 04:45:38;;;;;;;4.03;0.53;;;;;;;;;;4994036;28;20172;-51
2023/05/15 04:48:06;;;;;;;5.53;0.45;;;;;;;;;;4996171;28;20456;-52
2023/05/15 04:50:35;;;;;;;4.20;0.60;;;;;;;;;;4976841;28;20037;-50
2023/05/15 04:53:05;;;;;;;2.78;0.40;;;;;;;;;;4991978;28;20033;-50
2023/05/15 04:55:32;;;;;;;5.75;0.50;;;;;;;;;;4996943;28;20061;-51
2023/05/15 04:58:04;;;;;;;3.03;0.30;;;;;;;;;;5000576;28;20132;-51
2023/05/15 05:00:32;;;;;;;2.90;0.30;;;;;;;;;;4982923;28;20038;-49
2023/05/15 05:03:01;;;;;;;11.32;1.58;;;;;;;;;;4991010;28;20042;-53
2023/05/15 05:05:28;;;;;;;8.93;0.52;;;;;;;;;;4999061;28;20080;-53
2023/05/15 05:07:56;;;;;;;3.80;0.40;;;;;;;;;;4990185;28;20084;-50
2023/05/15 05:10:25;;;;;;;4.93;0.20;;;;;;;;;;4996882;28;20133;-47
2023/05/15 05:12:52;;;;;;;4.03;0.40;;;;;;;;;;4987700;28;20096;-54
2023/05/15 05:15:20;;;;;;;4.40;0.40;;;;;;;;;;4988658;28;20600;-51
2023/05/15 05:17:47;;;;;;;3.67;0.38;;;;;;;;;;4984739;28;20492;-50
2023/05/15 05:20:16;;;;;;;4.28;0.40;;;;;;;;;;4994974;28;20053;-49
2023/05/15 05:22:43;;;;;;;5.73;0.30;;;;;;;;;;4994732;28;20115;-50
2023/05/15 05:25:11;;;;;;;7.10;0.40;;;;;;;;;;4989863;28;20117;-49
2023/05/15 05:27:40;;;;;;;4.47;0.40;;;;;;;;;;4975938;28;20584;-51
2023/05/15 05:30:09;;;;;;;3.75;0.32;;;;;;;;;;5002893;28;20414;-51
2023/05/15 05:32:38;;;;;;;5.57;0.40;;;;;;;;;;4999569;28;20577;-53
2023/05/15 05:35:06;;;;;;;5.33;0.33;;;;;;;;;;4995339;28;20048;-48
2023/05/15 05:37:34;;;;;;;3.00;0.63;;;;;;;;;;4997459;28;20061;-49
2023/05/15 05:40:05;;;;;;;2.13;0.20;;;;;;;;;;4992418;28;20040;-48
2023/05/15 05:42:32;;;;;;;3.35;0.30;;;;;;;;;;5015027;28;20076;-49
2023/05/15 05:45:01;;;;;;;5.03;0.47;;;;;;;;;;4979468;28;20777;-51
2023/05/15 05:47:29;;;;;;;7.90;0.47;;;;;;;;;;4994657;28;20131;-55
2023/05/15 05:50:00;;;;;;;4.20;0.45;;;;;;;;;;4983606;28;20392;-52
2023/05/15 05:52:28;;;;;;;7.95;0.50;;;;;;;;;;4993946;28;20069;-53
2023/05/15 05:54:56;;;;;;;7.75;0.40;;;;;;;;;;5005457;28;20574;-50
2023/05/15 05:57:24;;;;;;;2.88;0.43;;;;;;;;;;4998820;28;20038;-52
2023/05/15 05:59:51;;;;;;;4.90;0.40;;;;;;;;;;4983840;28;20153;-52
2023/05/15 06:02:20;;;;;;;6.93;0.40;;;;;;;;;;5001032;28;20128;-49
2023/05/15 06:04:48;;;;;;;4.93;0.60;;;;;;;;;;4993522;28;20050;-49
2023/05/15 06:07:15;;;;;;;3.83;0.40;;;;;;;;;;5001294;28;20048;-51
2023/05/15 06:09:44;;;;;;;8.88;0.88;;;;;;;;;;4987345;28;20784;-50
2023/05/15 06:12:12;;;;;;;5.73;0.27;;;;;;;;;;4997380;28;20045;-50
2023/05/15 06:14:40;;;;;;;8.85;0.40;;;;;;;;;;5000409;28;20067;-50
2023/05/15 06:17:07;;;;;;;5.93;0.68;;;;;;;;;;5005066;28;20523;-50
2023/05/15 06:19:36;;;;;;;5.60;0.55;;;;;;;;;;4984328;28;20064;-49
2023/05/15 06:22:07;;;;;;;6.85;0.52;;;;;;;;;;4993395;28;20253;-54
2023/05/15 06:24:35;;;;;;;6.20;0.50;;;;;;;;;;4997569;28;20441;-50
2023/05/15 06:27:03;;;;;;;4.03;0.40;;;;;;;;;;4984018;28;20107;-54
2023/05/15 06:29:30;;;;;;;4.22;0.60;;;;;;;;;;4997170;28;20084;-54
2023/05/15 06:31:58;;;;;;;3.95;0.77;;;;;;;;;;4983955;28;20042;-51
2023/05/15 06:34:25;;;;;;;3.50;0.50;;;;;;;;;;5002115;28;20069;-49
2023/05/15 06:36:54;;;;;;;4.17;0.40;;;;;;;;;;4980955;28;20124;-51
2023/05/15 06:39:22;;;;;;;3.38;0.35;;;;;;;;;;4995142;28;20030;-52
2023/05/15 06:41:50;;;;;;;6.32;0.40;;;;;;;;;;4987183;28;20042;-51
2023/05/15 06:44:19;;;;;;;6.38;0.70;;;;;;;;;;4989781;28;20124;-54
2023/05/15 06:46:46;;;;;;;8.80;0.93;;;;;;;;;;4999121;28;20124;-53
2023/05/15 06:49:14;;;;;;;9.00;1.17;;;;;;;;;;5008006;28;20064;-50
2023/05/15 06:51:47;;;;;;;4.78;0.43;;;;;;;;;;4999027;28;20052;-54
2023/05/15 06:54:16;;;;;;;8.80;0.55;;;;;;;;;;4993312;28;20042;-49
2023/05/15 06:56:43;;;;;;;10.93;0.40;;;;;;;;;;4983377;28;20527;-53
2023/05/15 06:59:11;;;;;;;8.05;0.63;;;;;;;;;;5003019;28;20072;-49
2023/05/15 07:01:38;;;;;;;10.43;0.47;;;;;;;;;;4983356;28;20041;-52
2023/05/15 07:04:06;;;;;;;6.88;0.60;;;;;;;;;;4996345;28;20686;-50
2023/05/15 07:06:35;;;;;;;7.35;0.73;;;;;;;;;;4990025;28;20223;-52
2023/05/15 07:09:03;;;;;;;8.32;1.10;;;;;;;;;;4988640;28;20081;-53
2023/05/15 07:11:36;;;;;;;4.65;0.40;;;;;;;;;;4987411;28;20034;-51
2023/05/15 07:14:03;;;;;;;5.13;0.37;;;;;;;;;;4993530;28;20123;-50
2023/05/15 07:16:31;;;;;;;4.28;0.60;;;;;;;;;;5000712;28;20080;-50
2023/05/15 07:18:58;;;;;;;4.45;0.40;;;;;;;;;;4989451;28;20118;-52
2023/05/15 07:21:26;;;;;;;5.85;0.40;;;;;;;;;;4977919;28;20653;-51
2023/05/15 07:23:54;;;;;;;5.75;0.40;;;;;;;;;;4970504;28;20065;-51
2023/05/15 07:26:21;;;;;;;6.27;0.33;;;;;;;;;;4996370;28;20488;-49
2023/05/15 07:29:04;;;;;;;9.13;0.55;;;;;;;;;;4968358;28;20514;-48
2023/05/15 07:31:32;;;;;;;4.60;0.45;;;;;;;;;;4994457;28;20133;-51
2023/05/15 07:34:00;;;;;;;7.18;0.47;;;;;;;;;;4995686;28;20084;-53
2023/05/15 07:36:27;;;;;;;7.63;0.63;;;;;;;;;;4987190;28;20136;-52
2023/05/15 07:38:56;;;;;;;3.47;0.40;;;;;;;;;;4984984;28;20433;-51
2023/05/15 07:41:23;;;;;;;4.43;0.65;;;;;;;;;;4976522;28;20053;-50
2023/05/15 07:43:51;;;;;;;5.47;0.50;;;;;;;;;;4989772;28;20159;-47
2023/05/15 07:46:20;;;;;;;8.57;0.80;;;;;;;;;;4976957;28;20045;-52
2023/05/15 07:48:48;;;;;;;7.97;0.55;;;;;;;;;;4998175;28;20210;-53
2023/05/15 07:51:15;;;;;;;6.10;0.53;;;;;;;;;;5005112;28;20132;-52
2023/05/15 07:53:43;;;;;;;4.30;0.65;;;;;;;;;;4991578;28;20066;-51
2023/05/15 07:56:10;;;;;;;3.70;0.40;;;;;;;;;;5002097;28;20033;-53
2023/05/15 07:58:39;;;;;;;4.63;0.30;;;;;;;;;;4987965;28;20140;-52
2023/05/15 08:01:06;;;;;;;6.63;0.90;;;;;;;;;;4994347;28;20331;-54
2023/05/15 08:03:35;;;;;;;7.83;0.70;;;;;;;;;;4980608;28;20698;-51
2023/05/15 08:06:03;;;;;;;3.70;0.43;;;;;;;;;;4989129;28;20049;-50
2023/05/15 08:08:31;;;;;;;9.20;0.50;;;;;;;;;;4969027;28;20104;-48
2023/05/15 08:10:59;;;;;;;4.95;0.40;;;;;;;;;;5004632;28;20061;-50
2023/05/15 08:13:27;;;;;;;2.53;0.45;;;;;;;;;;4992117;28;20361;-53
2023/05/15 08:15:55;;;;;;;4.73;0.50;;;;;;;;;;4991727;28;20045;-52
2023/05/15 08:18:23;;;;;;;4.57;0.70;;;;;;;;;;4989945;28;20439;-49
2023/05/15 08:20:52;;;;;;;5.72;0.40;;;;;;;;;;4993081;28;20149;-54
2023/05/15 08:23:19;;;;;;;10.70;0.70;;;;;;;;;;4988902;28;20124;-53
2023/05/15 08:25:47;;;;;;;4.13;0.55;;;;;;;;;;4986595;28;20057;-53
2023/05/15 08:28:15;;;;;;;4.13;0.50;;;;;;;;;;4982270;28;20030;-53
2023/05/15 08:30:42;;;;;;;6.38;0.63;;;;;;;;;;4981230;28;20128;-49
2023/05/15 08:33:10;;;;;;;3.20;0.50;;;;;;;;;;4986610;28;20069;-51
2023/05/15 08:35:37;;;;;;;7.90;0.40;;;;;;;;;;4977487;28;21585;-53
2023/05/15 08:38:06;;;;;;;4.38;0.43;;;;;;;;;;4988626;28;20073;-54
2023/05/15 08:40:34;;;;;;;5.33;0.50;;;;;;;;;;4967957;28;20077;-51
2023/05/15 08:43:12;;;;;;;3.85;0.38;;;;;;;;;;4980880;28;20300;-51
2023/05/15 08:45:40;;;;;;;6.15;0.65;;;;;;;;;;4991563;28;20050;-52
2023/05/15 08:48:10;;;;;;;4.55;0.50;;;;;;;;;;4982026;28;20057;-54
2023/05/15 08:50:38;;;;;;;4.50;0.40;;;;;;;;;;4969267;28;21051;-51
2023/05/15 08:53:08;;;;;;;6.53;0.40;;;;;;;;;;4969902;28;20556;-53
2023/05/15 08:55:36;;;;;;;5.63;0.70;;;;;;;;;;4972685;28;20049;-52
2023/05/15 08:58:03;;;;;;;4.55;0.50;;;;;;;;;;4989475;28;20103;-53
2023/05/15 09:00:31;;;;;;;4.50;0.50;;;;;;;;;;4972719;28;20041;-53
2023/05/15 09:03:01;;;;;;;10.60;1.02;;;;;;;;;;4986744;28;20124;-56
2023/05/15 09:05:29;;;;;;;3.20;0.40;;;;;;;;;;4981877;28;20165;-52
2023/05/15 09:08:00;;;;;;;4.82;0.50;;;;;;;;;;4982762;28;20442;-54
2023/05/15 09:10:30;;;;;;;4.93;0.47;;;;;;;;;;4987659;28;20044;-53
2023/05/15 09:12:59;;;;;;;6.45;0.65;;;;;;;;;;4983702;28;20979;-53
2023/05/15 09:15:27;;;;;;;7.55;0.40;;;;;;;;;;4988336;28;20569;-55
2023/05/15 09:17:56;;;;;;;4.37;0.40;;;;;;;;;;4990726;28;20186;-54
2023/05/15 09:20:29;;;;;;;2.58;0.35;;;;;;;;;;5002073;28;20057;-53
2023/05/15 09:22:57;;;;;;;5.15;0.63;;;;;;;;;;5000635;28;20044;-54
2023/05/15 09:25:37;;;;;;;5.03;0.50;;;;;;;;;;4992614;28;20045;-48
2023/05/15 09:28:05;;;;;;;6.05;0.50;;;;;;;;;;4991475;28;20045;-49
2023/05/15 09:30:33;;;;;;;5.77;0.40;;;;;;;;;;4991921;28;20073;-50
2023/05/15 09:33:02;;;;;;;5.68;0.50;;;;;;;;;;5009823;28;20133;-54
2023/05/15 09:35:33;;;;;;;6.68;0.90;;;;;;;;;;4994528;28;21344;-51
2023/05/15 09:38:02;;;;;;;4.72;0.63;;;;;;;;;;5012643;28;20069;-53
2023/05/15 09:40:30;;;;;;;3.58;0.50;;;;;;;;;;4978559;28;20046;-52
2023/05/15 09:42:59;;;;;;;5.27;0.90;;;;;;;;;;4985649;28;20046;-53
2023/05/15 09:45:28;;;;;;;2.70;0.30;;;;;;;;;;5000228;28;20038;-54
2023/05/15 09:47:57;;;;;;;3.42;0.50;;;;;;;;;;4999485;28;20128;-51
2023/05/15 09:50:31;;;;;;;4.53;0.60;;;;;;;;;;4986455;28;20388;-53
2023/05/15 09:53:00;;;;;;;3.15;0.55;;;;;;;;;;5005507;28;20769;-52
2023/05/15 09:55:27;;;;;;;6.87;0.50;;;;;;;;;;4998288;28;20554;-50
2023/05/15 09:58:08;;;;;;;5.00;0.50;;;;;;;;;;4996948;28;20146;-53
2023/05/15 10:00:37;;;;;;;7.80;0.65;;;;;;;;;;5004860;28;20124;-50
2023/05/15 10:03:16;;;;;;;4.45;0.55;;;;;;;;;;4992229;28;20033;-49
2023/05/15 10:05:45;;;;;;;5.28;0.73;;;;;;;;;;4998955;28;20538;-52
2023/05/15 10:08:13;;;;;;;2.13;0.30;;;;;;;;;;4996915;28;20103;-50
2023/05/15 10:10:42;;;;;;;5.30;0.45;;;;;;;;;;4998284;28;20041;-49
2023/05/15 10:13:11;;;;;;;4.50;0.50;;;;;;;;;;4990192;28;20483;-48
2023/05/15 10:15:39;;;;;;;5.35;0.68;;;;;;;;;;4975212;28;20038;-50
2023/05/15 10:18:07;;;;;;;3.45;0.30;;;;;;;;;;5003647;28;20390;-51
2023/05/15 10:20:35;;;;;;;2.90;0.37;;;;;;;;;;4993280;28;20061;-50
2023/05/15 10:23:04;;;;;;;2.42;0.40;;;;;;;;;;5001988;28;20038;-54
2023/05/15 10:25:38;;;;;;;4.65;0.60;;;;;;;;;;4984559;28;20041;-51
2023/05/15 10:28:08;;;;;;;2.85;0.50;;;;;;;;;;5001714;28;20565;-54
2023/05/15 10:30:38;;;;;;;3.83;0.55;;;;;;;;;;4999824;28;20073;-48
2023/05/15 10:33:07;;;;;;;3.70;0.40;;;;;;;;;;4986758;28;20083;-49
2023/05/15 10:35:35;;;;;;;5.40;0.50;;;;;;;;;;4998067;28;20052;-51
2023/05/15 10:38:04;;;;;;;5.93;0.63;;;;;;;;;;4966249;28;20050;-52
2023/05/15 10:40:32;;;;;;;3.10;0.65;;;;;;;;;;4987059;28;20072;-50
2023/05/15 10:43:01;;;;;;;6.10;0.80;;;;;;;;;;4994548;28;20474;-51
2023/05/15 10:45:29;;;;;;;5.03;0.50;;;;;;;;;;4993187;28;20041;-49
2023/05/15 10:47:58;;;;;;;4.25;0.50;;;;;;;;;;5005208;28;20059;-50
2023/05/15 10:50:26;;;;;;;4.00;0.65;;;;;;;;;;4993225;28;20724;-52
2023/05/15 10:52:55;;;;;;;3.45;0.50;;;;;;;;;;4997005;28;20084;-51
2023/05/15 10:55:23;;;;;;;4.78;0.50;;;;;;;;;;4981242;28;20133;-51
2023/05/15 10:57:50;;;;;;;3.23;0.43;;;;;;;;;;5003552;28;20050;-50
2023/05/15 11:00:30;;;;;;;4.25;0.60;;;;;;;;;;4986481;28;20052;-52
2023/05/15 11:03:02;;;;;;;7.30;0.88;;;;;;;;;;5008081;28;20056;-53
2023/05/15 11:05:50;;;;;;;3.28;0.70;;;;;;;;;;4991942;28;20103;-53
2023/05/15 11:08:28;;;;;;;4.82;0.80;;;;;;;;;;4985642;28;20437;-50
2023/05/15 11:10:56;;;;;;;5.30;0.77;;;;;;;;;;4993109;28;20065;-52
2023/05/15 11:13:24;;;;;;;5.32;0.60;;;;;;;;;;4995871;28;20033;-51
2023/05/15 11:15:52;;;;;;;3.47;0.65;;;;;;;;;;4996936;28;20054;-53
2023/05/15 11:18:20;;;;;;;7.88;1.27;;;;;;;;;;4999684;28;20119;-51
2023/05/15 11:21:07;;;;;;;3.47;0.80;;;;;;;;;;4992991;28;20469;-52
2023/05/15 11:23:41;;;;;;;3.53;0.80;;;;;;;;;;4999956;28;20063;-51
2023/05/15 11:26:09;;;;;;;3.03;0.60;;;;;;;;;;4978664;28;20541;-52
2023/05/15 11:28:43;;;;;;;3.03;0.70;;;;;;;;;;4981639;28;20046;-52
2023/05/15 11:31:11;;;;;;;4.22;0.90;;;;;;;;;;4996258;28;20461;-51
2023/05/15 11:33:39;;;;;;;4.13;0.65;;;;;;;;;;4979919;28;20415;-53
2023/05/15 11:36:07;;;;;;;6.57;0.60;;;;;;;;;;5005073;28;20120;-53
2023/05/15 11:38:40;;;;;;;3.05;0.65;;;;;;;;;;4993027;28;21269;-54
2023/05/15 11:41:17;;;;;;;4.93;0.55;;;;;;;;;;4999833;28;20033;-54
2023/05/15 11:43:46;;;;;;;4.68;0.60;;;;;;;;;;4981779;28;20048;-49
2023/05/15 11:46:14;;;;;;;3.72;0.68;;;;;;;;;;4992923;28;20861;-52
2023/05/15 11:48:43;;;;;;;3.17;0.60;;;;;;;;;;4993152;28;20282;-53
2023/05/15 11:51:16;;;;;;;4.07;0.57;;;;;;;;;;4994865;28;20046;-52
2023/05/15 11:53:45;;;;;;;3.05;0.50;;;;;;;;;;4992374;28;20113;-53
2023/05/15 11:56:16;;;;;;;4.10;0.60;;;;;;;;;;4987883;28;20541;-50
2023/05/15 11:58:44;;;;;;;4.35;0.47;;;;;;;;;;4974085;28;20508;-50
2023/05/15 12:01:12;;;;;;;3.93;0.50;;;;;;;;;;5003923;28;20492;-50
2023/05/15 12:03:39;;;;;;;2.90;0.50;;;;;;;;;;4991851;28;20045;-52
2023/05/15 12:06:08;;;;;;;5.80;0.75;;;;;;;;;;4990176;28;20308;-53
2023/05/15 12:08:36;;;;;;;3.95;0.65;;;;;;;;;;4983794;28;20104;-52
2023/05/15 12:11:07;;;;;;;4.38;0.43;;;;;;;;;;4995710;28;20041;-53
2023/05/15 12:13:34;;;;;;;2.70;0.57;;;;;;;;;;4992535;28;20080;-52
2023/05/15 12:16:03;;;;;;;3.72;0.50;;;;;;;;;;5002379;28;20120;-52
2023/05/15 12:18:31;;;;;;;3.72;0.40;;;;;;;;;;4997656;28;20046;-54
2023/05/15 12:20:59;;;;;;;2.72;0.30;;;;;;;;;;4991516;28;20500;-53
2023/05/15 12:23:27;;;;;;;3.00;0.50;;;;;;;;;;4985408;28;20038;-51
2023/05/15 12:25:59;;;;;;;3.87;0.50;;;;;;;;;;4984915;28;20042;-53
2023/05/15 12:28:30;;;;;;;3.63;0.40;;;;;;;;;;4979310;28;20688;-54
2023/05/15 12:30:59;;;;;;;3.97;0.50;;;;;;;;;;4989298;28;20117;-54
2023/05/15 12:33:26;;;;;;;2.83;0.45;;;;;;;;;;4984741;28;20054;-55
2023/05/15 12:35:57;;;;;;;4.13;0.60;;;;;;;;;;5000049;28;20083;-56
2023/05/15 12:38:28;;;;;;;4.27;0.50;;;;;;;;;;5005745;28;20285;-54
2023/05/15 12:40:56;;;;;;;2.08;0.30;;;;;;;;;;4982278;28;20053;-55
2023/05/15 12:43:25;;;;;;;5.10;0.50;;;;;;;;;;4978923;28;20455;-51
2023/05/15 12:46:00;;;;;;;3.03;0.40;;;;;;;;;;4989930;28;20065;-52
2023/05/15 12:48:32;;;;;;;3.25;0.80;;;;;;;;;;4988095;28;20504;-53
2023/05/15 12:51:04;;;;;;;3.30;0.47;;;;;;;;;;5001416;28;20107;-53
2023/05/15 12:53:32;;;;;;;3.67;0.57;;;;;;;;;;4980321;28;20104;-51
2023/05/15 12:56:00;;;;;;;2.85;0.40;;;;;;;;;;4993180;28;20050;-54
2023/05/15 12:58:28;;;;;;;4.03;0.45;;;;;;;;;;4987862;28;20042;-56
2023/05/15 13:00:57;;;;;;;3.28;0.50;;;;;;;;;;4980827;28;20049;-54
2023/05/15 13:03:26;;;;;;;3.83;0.50;;;;;;;;;;4986938;28;20832;-53
2023/05/15 13:05:54;;;;;;;3.35;0.40;;;;;;;;;;4998021;28;20526;-51
2023/05/15 13:08:22;;;;;;;5.03;0.70;;;;;;;;;;4989725;28;20195;-51
2023/05/15 13:10:56;;;;;;;3.13;0.40;;;;;;;;;;4994562;28;20088;-50
2023/05/15 13:13:23;;;;;;;3.47;0.43;;;;;;;;;;4990940;28;20073;-49
2023/05/15 13:15:51;;;;;;;2.90;0.50;;;;;;;;;;4993431;28;20148;-50
2023/05/15 13:18:20;;;;;;;1.95;0.25;;;;;;;;;;4996205;28;20582;-52
2023/05/15 13:20:48;;;;;;;3.15;0.60;;;;;;;;;;4990926;28;20786;-49
2023/05/15 13:23:16;;;;;;;4.45;0.40;;;;;;;;;;4986602;28;20141;-51
2023/05/15 13:25:44;;;;;;;4.05;0.70;;;;;;;;;;4988510;28;20479;-53
2023/05/15 13:28:15;;;;;;;3.33;0.40;;;;;;;;;;5003498;28;20562;-52
2023/05/15 13:30:43;;;;;;;4.28;0.40;;;;;;;;;;4979917;28;20518;-49
2023/05/15 13:33:12;;;;;;;3.10;0.60;;;;;;;;;;5002270;28;20064;-51
2023/05/15 13:35:42;;;;;;;2.35;0.35;;;;;;;;;;4990573;28;20149;-53
2023/05/15 13:38:11;;;;;;;3.17;0.70;;;;;;;;;;4983618;28;20734;-51
2023/05/15 13:40:39;;;;;;;4.43;0.50;;;;;;;;;;4991311;28;20061;-51
2023/05/15 13:43:07;;;;;;;4.95;0.55;;;;;;;;;;4997568;28;20527;-54
2023/05/15 13:45:35;;;;;;;4.15;0.52;;;;;;;;;;5000485;28;20065;-52
2023/05/15 13:48:03;;;;;;;5.00;0.70;;;;;;;;;;5002699;28;20042;-52
2023/05/15 13:50:30;;;;;;;2.95;0.50;;;;;;;;;;4978927;28;20676;-53
2023/05/15 13:52:59;;;;;;;2.50;0.60;;;;;;;;;;5001203;28;20085;-52
2023/05/15 13:55:27;;;;;;;4.38;0.38;;;;;;;;;;5003346;28;20033;-51
2023/05/15 13:57:59;;;;;;;3.40;0.35;;;;;;;;;;5000396;28;20739;-51
2023/05/15 14:00:28;;;;;;;3.10;0.57;;;;;;;;;;4994126;28;20065;-53
2023/05/15 14:02:55;;;;;;;4.90;0.63;;;;;;;;;;4983125;28;20542;-49
2023/05/15 14:05:23;;;;;;;2.67;0.50;;;;;;;;;;4991997;28;20088;-48
2023/05/15 14:07:51;;;;;;;3.47;0.45;;;;;;;;;;4977213;28;20128;-52
2023/05/15 14:10:20;;;;;;;2.90;0.45;;;;;;;;;;5006325;28;20532;-49
2023/05/15 14:12:47;;;;;;;4.95;0.60;;;;;;;;;;4989988;28;20097;-50
2023/05/15 14:15:15;;;;;;;3.13;0.52;;;;;;;;;;4999519;28;20543;-50
2023/05/15 14:17:42;;;;;;;6.57;0.50;;;;;;;;;;4988545;28;20053;-51
2023/05/15 14:20:11;;;;;;;2.97;0.50;;;;;;;;;;5010083;28;20061;-54
2023/05/15 14:22:39;;;;;;;4.72;0.40;;;;;;;;;;4991119;28;20069;-52
2023/05/15 14:25:08;;;;;;;2.75;0.52;;;;;;;;;;4985824;28;20366;-53
2023/05/15 14:27:37;;;;;;;4.38;0.40;;;;;;;;;;4994339;28;20092;-50
2023/05/15 14:30:06;;;;;;;2.00;0.40;;;;;;;;;;4990349;28;20409;-54
2023/05/15 14:32:34;;;;;;;3.85;0.47;;;;;;;;;;4989374;28;20042;-47
2023/05/15 14:35:03;;;;;;;2.65;0.60;;;;;;;;;;5000453;28;20042;-50
2023/05/15 14:37:31;;;;;;;4.95;0.30;;;;;;;;;;4993436;28;20042;-52
2023/05/15 14:39:58;;;;;;;4.60;0.50;;;;;;;;;;4981968;28;20041;-52
2023/05/15 14:42:26;;;;;;;2.90;0.40;;;;;;;;;;5003466;28;20519;-51
2023/05/15 14:44:55;;;;;;;4.75;0.38;;;;;;;;;;4983555;28;20099;-49
2023/05/15 14:47:24;;;;;;;4.25;0.50;;;;;;;;;;4998126;28;20044;-51
2023/05/15 14:49:52;;;;;;;3.67;0.30;;;;;;;;;;4998657;28;20041;-48
2023/05/15 14:52:22;;;;;;;4.93;0.60;;;;;;;;;;4986557;28;20038;-52